Time;durP1;ratioP1;P1;durP2;ratioP2;P2;SDS_P1;SDS_P2;PMS_P1;PMS_P2;Temp;Humidity;BMP_temperature;BMP_pressure;BME280_temperature;BME280_humidity;BME280_pressure;Samples;Min_cycle;Max_cycle;Signal;HPM_P1;HPM_P2
2023/05/03 07:00:28;;;;;;;;;;;;;;;;;;;;;
2023/05/03 07:03:04;;;;;;;4.80;2.95;;;;;;;;;;4955736;28;20039;-95
2023/05/03 07:06:09;;;;;;;8.32;3.90;;;;;;;;;;4954087;28;20035;-96
2023/05/03 07:14:49;;;;;;;;;;;;;;;;;;;;;
2023/05/03 07:17:20;;;;;;;7.80;3.92;;;;;;;;;;4959895;28;20041;-95
2023/05/03 07:19:45;;;;;;;13.20;4.28;;;;;;;;;;4947472;28;20043;-95
2023/05/03 07:22:13;;;;;;;9.40;4.00;;;;;;;;;;4943821;29;20071;-95
2023/05/03 07:24:44;;;;;;;8.18;4.28;;;;;;;;;;4959605;29;20726;-95
2023/05/03 07:27:19;;;;;;;14.15;4.80;;;;;;;;;;4952556;28;20042;-94
2023/05/03 07:29:51;;;;;;;10.05;4.53;;;;;;;;;;4951955;28;20484;-95
2023/05/03 07:32:17;;;;;;;11.10;4.50;;;;;;;;;;4948229;28;20603;-94
2023/05/03 07:34:42;;;;;;;14.82;5.68;;;;;;;;;;4943785;29;20087;-94
2023/05/03 07:37:08;;;;;;;17.05;5.30;;;;;;;;;;4951768;29;20052;-95
2023/05/03 07:39:41;;;;;;;11.95;5.10;;;;;;;;;;4950201;28;20030;-95
2023/05/03 07:42:13;;;;;;;9.88;4.32;;;;;;;;;;4959070;28;20046;-95
2023/05/03 07:44:41;;;;;;;8.35;3.85;;;;;;;;;;4941838;29;20035;-95
2023/05/03 07:47:09;;;;;;;10.73;5.10;;;;;;;;;;4941042;28;20468;-95
2023/05/03 07:49:36;;;;;;;11.32;4.57;;;;;;;;;;4952433;28;20464;-94
2023/05/03 07:52:16;;;;;;;11.73;4.78;;;;;;;;;;4947972;28;20039;-95
2023/05/03 07:54:44;;;;;;;12.15;4.45;;;;;;;;;;4938748;28;20055;-94
2023/05/03 07:57:16;;;;;;;15.48;5.30;;;;;;;;;;4943819;29;20034;-94
2023/05/03 07:59:50;;;;;;;12.20;5.50;;;;;;;;;;4948528;28;20053;-95
2023/05/03 08:02:15;;;;;;;15.02;5.78;;;;;;;;;;4943165;28;20024;-96
2023/05/03 08:04:43;;;;;;;15.93;5.57;;;;;;;;;;4960580;28;20037;-95
2023/05/03 08:07:09;;;;;;;13.13;6.00;;;;;;;;;;4959710;28;20027;-95
2023/05/03 08:09:42;;;;;;;12.82;6.25;;;;;;;;;;4959460;28;20019;-95
2023/05/03 08:18:05;;;;;;;13.20;5.10;;;;;;;;;;4968341;28;19906;-94
2023/05/03 08:20:35;;;;;;;14.38;5.50;;;;;;;;;;4955009;29;20038;-94
2023/05/03 08:23:01;;;;;;;12.82;5.38;;;;;;;;;;4957919;28;20134;-93
2023/05/03 08:25:39;;;;;;;13.85;4.68;;;;;;;;;;4941367;28;20035;-93
2023/05/03 08:28:06;;;;;;;10.15;5.35;;;;;;;;;;4966909;28;20385;-94
2023/05/03 08:31:26;;;;;;;;;;;;;;;;;;;;;
2023/05/03 08:33:28;;;;;;;11.75;4.70;;;;;;;;;;4951236;28;20039;-95
2023/05/03 08:36:05;;;;;;;10.00;4.80;;;;;;;;;;4957191;29;20032;-95
2023/05/03 08:38:40;;;;;;;14.15;4.32;;;;;;;;;;4943818;29;20110;-95
2023/05/03 08:47:46;;;;;;;;;;;;;;;;;;;;;
2023/05/03 08:54:38;;;;;;;;;;;;;;;;;;;;;
2023/05/03 08:57:37;;;;;;;;;;;;;;;;;;;;;
2023/05/03 09:22:33;;;;;;;11.70;4.07;;;;;;;;;;4847085;29;20080;-96
2023/05/03 09:25:16;;;;;;;14.02;5.35;;;;;;;;;;4845037;29;20077;-95
2023/05/03 09:31:24;;;;;;;12.38;4.88;;;;;;;;;;4790451;29;20059;-95
2023/05/03 09:43:43;;;;;;;19.63;5.20;;;;;;;;;;4943958;28;20039;-96
2023/05/03 09:46:37;;;;;;;17.23;5.25;;;;;;;;;;4877870;29;20041;-95
2023/05/03 09:53:02;;;;;;;;;;;;;;;;;;;;;
2023/05/03 09:55:57;;;;;;;;;;;;;;;;;;;;;
2023/05/03 09:59:07;;;;;;;;;;;;;;;;;;;;;
2023/05/03 10:05:29;;;;;;;;;;;;;;;;;;;;;
2023/05/03 10:21:22;;;;;;;7.07;3.83;;;;;;;;;;4848307;29;20048;-96
2023/05/03 10:30:38;;;;;;;;;;;;;;;;;;;;;
2023/05/03 10:33:50;;;;;;;;;;;;;;;;;;;;;
2023/05/03 10:43:16;;;;;;;;;;;;;;;;;;;;;
2023/05/03 10:46:17;;;;;;;;;;;;;;;;;;;;;
2023/05/03 10:55:39;;;;;;;8.90;3.20;;;;;;;;;;4784362;30;20036;-95
2023/05/03 11:35:49;;;;;;;;;;;;;;;;;;;;;
2023/05/03 11:48:17;;;;;;;9.50;3.83;;;;;;;;;;4790586;30;20031;-95
2023/05/03 13:33:21;;;;;;;;;;;;;;;;;;;;;
2023/05/03 14:10:47;;;;;;;;;;;;;;;;;;;;;
2023/05/03 14:20:38;;;;;;;;;;;;;;;;;;;;;
2023/05/03 14:40:00;;;;;;;;;;;;;;;;;;;;;
2023/05/03 14:45:55;;;;;;;;;;;;;;;;;;;;;
2023/05/03 16:32:04;;;;;;;;;;;;;;;;;;;;;
2023/05/03 16:38:06;;;;;;;5.17;2.80;;;;;;;;;;6275255;22;20063;-96
2023/05/03 16:40:47;;;;;;;8.40;2.75;;;;;;;;;;6256198;22;20067;-96
2023/05/03 16:47:03;;;;;;;7.88;2.78;;;;;;;;;;6262474;22;20002;-96
2023/05/03 16:50:05;;;;;;;7.90;3.97;;;;;;;;;;6280627;22;20010;-95
2023/05/03 16:52:50;;;;;;;9.02;3.67;;;;;;;;;;6258735;22;19996;-96
2023/05/03 16:55:25;;;;;;;7.95;3.58;;;;;;;;;;6258752;22;20095;-94
2023/05/03 16:58:09;;;;;;;;;;;;;;;;;;;;;
2023/05/03 17:01:06;;;;;;;;;;;;;;;;;;;;;
2023/05/03 17:03:47;;;;;;;7.45;2.97;;;;;;;;;;6181511;22;20165;-95
2023/05/03 17:09:38;;;;;;;;;;;;;;;;;;;;;
2023/05/03 17:12:42;;;;;;;7.18;3.65;;;;;;;;;;6281779;22;20363;-95
2023/05/03 17:15:23;;;;;;;9.63;3.33;;;;;;;;;;6257200;22;20016;-94
2023/05/03 17:18:10;;;;;;;;;;;;;;;;;;;;;
2023/05/03 17:20:51;;;;;;;7.50;3.60;;;;;;;;;;6286182;22;20330;-96
2023/05/03 17:23:49;;;;;;;9.15;3.30;;;;;;;;;;6274697;22;20047;-96
2023/05/03 17:26:39;;;;;;;14.38;3.92;;;;;;;;;;6274034;22;20007;-96
2023/05/03 17:32:37;;;;;;;9.88;3.00;;;;;;;;;;6245344;22;20041;-96
2023/05/03 17:35:09;;;;;;;7.55;3.55;;;;;;;;;;6259464;22;20042;-95
2023/05/03 17:40:44;;;;;;;;;;;;;;;;;;;;;
2023/05/03 17:43:11;;;;;;;;;;;;;;;;;;6289554;22;20004;-95
2023/05/03 17:46:09;;;;;;;9.88;3.28;;;;;;;;;;6261026;22;19925;-96
2023/05/03 17:48:52;;;;;;;;;;;;;;;;;;;;;
2023/05/03 17:51:34;;;;;;;6.45;2.97;;;;;;;;;;6254310;23;20473;-96
2023/05/03 17:54:45;;;;;;;6.70;2.95;;;;;;;;;;6254524;23;20004;-95
2023/05/03 17:57:38;;;;;;;8.25;3.17;;;;;;;;;;6270923;22;20000;-96
2023/05/03 18:00:33;;;;;;;6.63;2.63;;;;;;;;;;6261326;22;20035;-94
2023/05/03 18:03:13;;;;;;;;;;;;;;;;;;;;;
2023/05/03 18:05:54;;;;;;;6.85;3.25;;;;;;;;;;6282421;22;20030;-95
2023/05/03 18:08:41;;;;;;;9.48;4.38;;;;;;;;;;6288164;22;20073;-95
2023/05/03 18:11:26;;;;;;;6.32;2.72;;;;;;;;;;6261283;22;20051;-96
2023/05/03 18:17:12;;;;;;;7.35;3.60;;;;;;;;;;6263900;22;20078;-95
2023/05/03 18:20:05;;;;;;;8.00;3.50;;;;;;;;;;6261379;22;20004;-96
2023/05/03 18:22:39;;;;;;;7.80;3.40;;;;;;;;;;6287225;22;20014;-96
2023/05/03 18:28:12;;;;;;;;;;;;;;;;;;;;;
2023/05/03 18:30:44;;;;;;;9.07;3.95;;;;;;;;;;6287376;22;20019;-95
2023/05/03 18:33:17;;;;;;;6.50;3.85;;;;;;;;;;6260197;22;20062;-95
2023/05/03 18:35:52;;;;;;;9.45;4.00;;;;;;;;;;6259938;22;20561;-96
2023/05/03 18:38:51;;;;;;;;;;;;;;;;;;;;;
2023/05/03 18:41:27;;;;;;;6.30;3.17;;;;;;;;;;6287867;22;20038;-96
2023/05/03 18:43:56;;;;;;;6.85;3.60;;;;;;;;;;6261561;22;20069;-96
2023/05/03 18:46:28;;;;;;;11.90;3.40;;;;;;;;;;6261381;22;20090;-96
2023/05/03 18:48:55;;;;;;;;;;;;;;;;;;6259864;22;20004;-96
2023/05/03 18:51:29;;;;;;;10.05;3.88;;;;;;;;;;6260005;22;19931;-95
2023/05/03 18:53:55;;;;;;;7.97;4.03;;;;;;;;;;6288250;22;20656;-96
2023/05/03 18:56:32;;;;;;;10.90;4.00;;;;;;;;;;6262123;22;20004;-95
2023/05/03 18:59:09;;;;;;;6.97;3.10;;;;;;;;;;6287707;22;20000;-96
2023/05/03 19:01:51;;;;;;;7.78;3.30;;;;;;;;;;6286938;22;19996;-95
2023/05/03 19:04:29;;;;;;;8.75;3.70;;;;;;;;;;6287849;22;20008;-95
2023/05/03 19:07:05;;;;;;;8.73;3.78;;;;;;;;;;6261983;22;19999;-95
2023/05/03 19:09:31;;;;;;;8.80;4.35;;;;;;;;;;6263002;22;20406;-95
2023/05/03 19:11:58;;;;;;;4.93;2.97;;;;;;;;;;6286333;22;20008;-96
2023/05/03 19:14:32;;;;;;;9.35;3.88;;;;;;;;;;6261051;22;20006;-96
2023/05/03 19:17:00;;;;;;;8.65;3.65;;;;;;;;;;6267012;22;20072;-94
2023/05/03 19:19:44;;;;;;;6.40;3.85;;;;;;;;;;6270867;22;19983;-95
2023/05/03 19:22:14;;;;;;;9.90;4.60;;;;;;;;;;6292641;22;19991;-95
2023/05/03 19:24:49;;;;;;;7.70;3.90;;;;;;;;;;6272021;22;19995;-94
2023/05/03 19:27:24;;;;;;;7.38;4.38;;;;;;;;;;6263076;22;19988;-94
2023/05/03 19:29:51;;;;;;;7.53;4.15;;;;;;;;;;6251151;22;20014;-94
2023/05/03 19:32:17;;;;;;;9.85;3.90;;;;;;;;;;6254955;22;20015;-96
2023/05/03 19:34:43;;;;;;;10.15;4.28;;;;;;;;;;6258568;22;20018;-95
2023/05/03 19:37:12;;;;;;;8.30;3.88;;;;;;;;;;6257751;22;20014;-94
2023/05/03 19:39:40;;;;;;;11.68;4.32;;;;;;;;;;6284389;22;20026;-94
2023/05/03 19:42:08;;;;;;;6.70;3.85;;;;;;;;;;6255690;22;20000;-95
2023/05/03 19:47:51;;;;;;;7.47;4.13;;;;;;;;;;6230517;22;20010;-95
2023/05/03 19:50:16;;;;;;;12.45;4.20;;;;;;;;;;6255014;22;20007;-95
2023/05/03 19:52:45;;;;;;;8.48;4.57;;;;;;;;;;6255456;22;20004;-95
2023/05/03 19:55:11;;;;;;;12.80;4.22;;;;;;;;;;6284271;22;20007;-95
2023/05/03 19:57:39;;;;;;;9.00;3.70;;;;;;;;;;6255672;22;20019;-94
2023/05/03 20:00:29;;;;;;;6.93;3.72;;;;;;;;;;6254023;22;20000;-95
2023/05/03 20:02:55;;;;;;;11.23;3.38;;;;;;;;;;6280440;22;20029;-95
2023/05/03 20:05:25;;;;;;;9.48;3.60;;;;;;;;;;6257296;22;20381;-96
2023/05/03 20:07:53;;;;;;;7.70;4.32;;;;;;;;;;6251668;22;20086;-94
2023/05/03 20:10:21;;;;;;;5.95;3.25;;;;;;;;;;6255320;22;20022;-96
2023/05/03 20:12:47;;;;;;;9.93;3.65;;;;;;;;;;6284035;22;20007;-95
2023/05/03 20:15:15;;;;;;;8.05;3.67;;;;;;;;;;6256258;22;20093;-96
2023/05/03 20:17:44;;;;;;;9.27;4.20;;;;;;;;;;6279719;22;20027;-95
2023/05/03 20:20:10;;;;;;;8.85;4.10;;;;;;;;;;6255174;22;20067;-95
2023/05/03 20:22:36;;;;;;;8.80;4.28;;;;;;;;;;6281080;22;20062;-95
2023/05/03 20:25:01;;;;;;;10.27;3.97;;;;;;;;;;6252971;22;20007;-95
2023/05/03 20:27:29;;;;;;;11.15;4.07;;;;;;;;;;6253899;22;20007;-96
2023/05/03 20:29:55;;;;;;;8.25;3.63;;;;;;;;;;6253837;22;20011;-95
2023/05/03 20:32:29;;;;;;;9.50;3.60;;;;;;;;;;6268651;22;20012;-94
2023/05/03 20:34:54;;;;;;;10.80;4.45;;;;;;;;;;6253902;22;20346;-95
2023/05/03 20:37:22;;;;;;;6.63;3.38;;;;;;;;;;6279133;22;19999;-94
2023/05/03 20:39:50;;;;;;;6.78;3.78;;;;;;;;;;6252975;22;20041;-95
2023/05/03 20:42:17;;;;;;;8.18;4.05;;;;;;;;;;6281239;22;20019;-95
2023/05/03 20:44:44;;;;;;;11.18;3.70;;;;;;;;;;6278375;22;20073;-95
2023/05/03 20:47:12;;;;;;;5.30;3.35;;;;;;;;;;6250756;22;20346;-96
2023/05/03 20:49:41;;;;;;;6.75;3.88;;;;;;;;;;6250570;22;20086;-96
2023/05/03 20:52:06;;;;;;;7.75;3.53;;;;;;;;;;6251422;22;20039;-95
2023/05/03 20:54:36;;;;;;;7.07;3.97;;;;;;;;;;6280117;22;20012;-95
2023/05/03 20:57:02;;;;;;;9.57;3.65;;;;;;;;;;6247110;22;20003;-96
2023/05/03 20:59:30;;;;;;;9.60;4.53;;;;;;;;;;6279165;22;19999;-95
2023/05/03 21:01:55;;;;;;;10.15;3.53;;;;;;;;;;6252955;22;20078;-96
2023/05/03 21:04:23;;;;;;;5.68;3.28;;;;;;;;;;6282002;22;20430;-96
2023/05/03 21:06:50;;;;;;;6.05;3.40;;;;;;;;;;6254536;22;20226;-94
2023/05/03 21:09:19;;;;;;;8.30;3.50;;;;;;;;;;6253526;22;20050;-95
2023/05/03 21:11:58;;;;;;;7.85;3.80;;;;;;;;;;6256001;22;20418;-95
2023/05/03 21:14:24;;;;;;;11.77;4.00;;;;;;;;;;6258481;22;20077;-95
2023/05/03 21:16:49;;;;;;;8.73;3.70;;;;;;;;;;6263580;22;19999;-96
2023/05/03 21:19:17;;;;;;;9.40;3.97;;;;;;;;;;6261103;22;20011;-95
2023/05/03 21:21:44;;;;;;;8.95;3.60;;;;;;;;;;6259673;22;19996;-95
2023/05/03 21:24:09;;;;;;;6.10;2.85;;;;;;;;;;6261874;22;20000;-95
2023/05/03 21:26:35;;;;;;;6.75;3.60;;;;;;;;;;6265561;22;20446;-95
2023/05/03 21:29:04;;;;;;;9.73;4.25;;;;;;;;;;6284769;22;19999;-96
2023/05/03 21:31:53;;;;;;;7.20;4.15;;;;;;;;;;6260274;22;20042;-94
2023/05/03 21:34:18;;;;;;;11.85;4.05;;;;;;;;;;6264262;22;19988;-95
2023/05/03 21:36:49;;;;;;;9.07;4.63;;;;;;;;;;6264584;22;20443;-95
2023/05/03 21:39:24;;;;;;;9.30;4.00;;;;;;;;;;6256991;22;20065;-96
2023/05/03 21:41:51;;;;;;;8.10;3.80;;;;;;;;;;6283658;22;20012;-95
2023/05/03 21:44:20;;;;;;;5.35;3.28;;;;;;;;;;6256393;22;20011;-95
2023/05/03 21:46:47;;;;;;;8.05;3.17;;;;;;;;;;6258527;22;20004;-96
2023/05/03 21:49:32;;;;;;;12.02;5.00;;;;;;;;;;6271525;22;20007;-96
2023/05/03 21:52:03;;;;;;;10.52;3.95;;;;;;;;;;6269997;22;20003;-95
2023/05/03 21:54:32;;;;;;;9.95;4.47;;;;;;;;;;6255943;22;20086;-95
2023/05/03 21:57:04;;;;;;;7.97;4.18;;;;;;;;;;6284152;22;20010;-96
2023/05/03 21:59:35;;;;;;;10.68;4.50;;;;;;;;;;6257404;22;20071;-95
2023/05/03 22:02:01;;;;;;;11.80;5.67;;;;;;;;;;6257051;22;20407;-95
2023/05/03 22:04:38;;;;;;;14.82;4.95;;;;;;;;;;6256479;22;20004;-95
2023/05/03 22:10:18;;;;;;;10.07;3.78;;;;;;;;;;6284984;22;20000;-95
2023/05/03 22:12:48;;;;;;;11.35;4.78;;;;;;;;;;6284518;22;20047;-95
2023/05/03 22:15:13;;;;;;;5.63;3.28;;;;;;;;;;6257455;22;20018;-94
2023/05/03 22:17:43;;;;;;;7.90;4.15;;;;;;;;;;6283497;22;19996;-95
2023/05/03 22:20:20;;;;;;;8.82;4.40;;;;;;;;;;6260307;22;20083;-95
2023/05/03 22:22:52;;;;;;;10.02;4.40;;;;;;;;;;6269599;22;20015;-95
2023/05/03 22:25:26;;;;;;;7.85;4.15;;;;;;;;;;6267197;22;20015;-95
2023/05/03 22:27:52;;;;;;;7.70;4.53;;;;;;;;;;6283526;22;20103;-95
2023/05/03 22:30:18;;;;;;;9.27;4.00;;;;;;;;;;6284618;22;19991;-96
2023/05/03 22:32:45;;;;;;;13.65;4.82;;;;;;;;;;6284233;22;20010;-95
2023/05/03 22:35:14;;;;;;;9.65;4.72;;;;;;;;;;6284293;22;20058;-95
2023/05/03 22:37:41;;;;;;;9.43;4.47;;;;;;;;;;6258640;22;20012;-95
2023/05/03 22:40:11;;;;;;;8.05;4.10;;;;;;;;;;6284137;22;20000;-96
2023/05/03 22:42:38;;;;;;;7.80;4.40;;;;;;;;;;6282782;22;20004;-95
2023/05/03 22:45:09;;;;;;;7.50;3.38;;;;;;;;;;6256279;22;20059;-95
2023/05/03 22:47:44;;;;;;;9.40;4.90;;;;;;;;;;6256150;22;20081;-95
2023/05/03 22:50:11;;;;;;;8.25;4.20;;;;;;;;;;6256988;22;20049;-95
2023/05/03 22:52:39;;;;;;;9.55;5.20;;;;;;;;;;6282953;22;20019;-95
2023/05/03 22:55:08;;;;;;;10.55;4.72;;;;;;;;;;6256259;22;20011;-96
2023/05/03 22:57:37;;;;;;;11.68;4.28;;;;;;;;;;6243695;22;20004;-95
2023/05/03 23:00:03;;;;;;;10.55;4.38;;;;;;;;;;6256511;22;20024;-95
2023/05/03 23:02:32;;;;;;;10.73;4.55;;;;;;;;;;6254897;22;20015;-96
2023/05/03 23:05:01;;;;;;;12.55;4.75;;;;;;;;;;6257456;22;19999;-95
2023/05/03 23:07:29;;;;;;;10.00;4.75;;;;;;;;;;6286035;22;20377;-95
2023/05/03 23:10:01;;;;;;;8.15;4.80;;;;;;;;;;6258549;22;20000;-94
2023/05/03 23:12:27;;;;;;;;;;;;;;;;;;6257132;22;20443;-94
2023/05/03 23:14:52;;;;;;;13.13;4.47;;;;;;;;;;6257297;22;19916;-96
2023/05/03 23:17:17;;;;;;;12.30;5.20;;;;;;;;;;6257515;22;20055;-95
2023/05/03 23:19:44;;;;;;;7.72;4.00;;;;;;;;;;6256957;22;20023;-95
2023/05/03 23:22:14;;;;;;;7.28;4.22;;;;;;;;;;6283631;22;20053;-95
2023/05/03 23:24:45;;;;;;;9.57;3.88;;;;;;;;;;6258987;22;19999;-95
2023/05/03 23:27:19;;;;;;;6.87;3.73;;;;;;;;;;6256056;22;19999;-94
2023/05/03 23:29:48;;;;;;;8.55;3.78;;;;;;;;;;6258859;22;20035;-95
2023/05/03 23:32:17;;;;;;;12.57;4.43;;;;;;;;;;6264727;22;20008;-95
2023/05/03 23:35:02;;;;;;;11.65;4.63;;;;;;;;;;6259615;22;20011;-95
2023/05/03 23:37:31;;;;;;;8.68;3.72;;;;;;;;;;6267315;22;20008;-95
2023/05/03 23:39:57;;;;;;;10.27;4.45;;;;;;;;;;6262804;22;20003;-93
2023/05/03 23:42:33;;;;;;;8.18;3.92;;;;;;;;;;6288056;22;20035;-94
2023/05/03 23:45:02;;;;;;;7.22;3.42;;;;;;;;;;6287871;22;19984;-95
2023/05/03 23:47:28;;;;;;;11.90;5.00;;;;;;;;;;6263242;22;20003;-93
2023/05/03 23:50:13;;;;;;;8.15;4.18;;;;;;;;;;6283524;22;20442;-93
2023/05/03 23:52:43;;;;;;;7.95;4.68;;;;;;;;;;6258787;22;20037;-93
2023/05/03 23:55:20;;;;;;;13.20;4.75;;;;;;;;;;6283713;22;20025;-94
2023/05/03 23:57:45;;;;;;;8.95;4.10;;;;;;;;;;6256234;22;20083;-94
